sensor_id;sensor_type;location;lat;lon;timestamp;temperature;humidity
54684;DHT22;40582;53.100;6.686;2023-09-18T00:01:39;16.40;99.90
54684;DHT22;40582;53.100;6.686;2023-09-18T00:04:05;16.40;99.90
54684;DHT22;40582;53.100;6.686;2023-09-18T00:06:32;16.30;99.90
54684;DHT22;40582;53.100;6.686;2023-09-18T00:08:58;16.30;99.90
54684;DHT22;40582;53.100;6.686;2023-09-18T00:11:24;16.30;99.90
54684;DHT22;40582;53.100;6.686;2023-09-18T00:13:50;16.20;99.90
54684;DHT22;40582;53.100;6.686;2023-09-18T00:16:15;16.30;99.90
54684;DHT22;40582;53.100;6.686;2023-09-18T00:18:41;16.30;99.90
54684;DHT22;40582;53.100;6.686;2023-09-18T00:21:08;16.20;99.90
54684;DHT22;40582;53.100;6.686;2023-09-18T00:23:36;16.20;99.90
54684;DHT22;40582;53.100;6.686;2023-09-18T00:26:02;16.20;99.90
54684;DHT22;40582;53.100;6.686;2023-09-18T00:28:28;16.20;99.90
54684;DHT22;40582;53.100;6.686;2023-09-18T00:30:53;16.10;99.90
54684;DHT22;40582;53.100;6.686;2023-09-18T00:33:19;16.10;99.90
54684;DHT22;40582;53.100;6.686;2023-09-18T00:35:49;16.10;99.90
54684;DHT22;40582;53.100;6.686;2023-09-18T00:38:15;16.10;99.90
54684;DHT22;40582;53.100;6.686;2023-09-18T00:40:41;16.10;99.90
54684;DHT22;40582;53.100;6.686;2023-09-18T00:43:07;16.10;99.90
54684;DHT22;40582;53.100;6.686;2023-09-18T00:45:34;16.10;99.90
54684;DHT22;40582;53.100;6.686;2023-09-18T00:48:01;16.10;99.90
54684;DHT22;40582;53.100;6.686;2023-09-18T00:50:27;16.10;99.90
54684;DHT22;40582;53.100;6.686;2023-09-18T00:52:53;16.10;99.90
54684;DHT22;40582;53.100;6.686;2023-09-18T00:55:18;16.10;99.90
54684;DHT22;40582;53.100;6.686;2023-09-18T00:57:45;16.10;99.90
54684;DHT22;40582;53.100;6.686;2023-09-18T01:00:12;16.10;99.90
54684;DHT22;40582;53.100;6.686;2023-09-18T01:02:41;16.20;99.90
54684;DHT22;40582;53.100;6.686;2023-09-18T01:05:06;16.20;99.90
54684;DHT22;40582;53.100;6.686;2023-09-18T01:07:32;16.20;99.90
54684;DHT22;40582;53.100;6.686;2023-09-18T01:09:58;16.20;99.90
54684;DHT22;40582;53.100;6.686;2023-09-18T01:15:37;16.20;99.90
54684;DHT22;40582;53.100;6.686;2023-09-18T01:18:09;16.20;99.90
54684;DHT22;40582;53.100;6.686;2023-09-18T01:20:34;16.20;99.90
54684;DHT22;40582;53.100;6.686;2023-09-18T01:23:00;16.20;99.90
54684;DHT22;40582;53.100;6.686;2023-09-18T01:25:26;16.20;99.90
54684;DHT22;40582;53.100;6.686;2023-09-18T01:27:51;16.30;99.90
54684;DHT22;40582;53.100;6.686;2023-09-18T01:30:17;16.30;99.90
54684;DHT22;40582;53.100;6.686;2023-09-18T01:32:45;16.20;99.90
54684;DHT22;40582;53.100;6.686;2023-09-18T01:35:12;16.20;99.90
54684;DHT22;40582;53.100;6.686;2023-09-18T01:37:39;16.20;99.90
54684;DHT22;40582;53.100;6.686;2023-09-18T01:40:06;16.20;99.90
54684;DHT22;40582;53.100;6.686;2023-09-18T01:42:33;16.20;99.90
54684;DHT22;40582;53.100;6.686;2023-09-18T01:45:00;16.20;99.90
54684;DHT22;40582;53.100;6.686;2023-09-18T01:47:26;16.20;99.90
54684;DHT22;40582;53.100;6.686;2023-09-18T01:49:55;16.20;99.90
54684;DHT22;40582;53.100;6.686;2023-09-18T01:52:20;16.20;99.90
54684;DHT22;40582;53.100;6.686;2023-09-18T01:54:46;16.10;99.90
54684;DHT22;40582;53.100;6.686;2023-09-18T01:57:12;16.10;99.90
54684;DHT22;40582;53.100;6.686;2023-09-18T01:59:38;16.10;99.90
54684;DHT22;40582;53.100;6.686;2023-09-18T02:02:05;16.10;99.90
54684;DHT22;40582;53.100;6.686;2023-09-18T02:04:33;16.10;99.90
54684;DHT22;40582;53.100;6.686;2023-09-18T02:06:58;16.10;99.90
54684;DHT22;40582;53.100;6.686;2023-09-18T02:09:24;16.00;99.90
54684;DHT22;40582;53.100;6.686;2023-09-18T02:11:50;16.00;99.90
54684;DHT22;40582;53.100;6.686;2023-09-18T02:14:16;16.00;99.90
54684;DHT22;40582;53.100;6.686;2023-09-18T02:16:42;16.00;99.90
54684;DHT22;40582;53.100;6.686;2023-09-18T02:19:09;16.00;99.90
54684;DHT22;40582;53.100;6.686;2023-09-18T02:21:36;16.00;99.90
54684;DHT22;40582;53.100;6.686;2023-09-18T02:24:02;16.00;99.90
54684;DHT22;40582;53.100;6.686;2023-09-18T02:26:28;16.00;99.90
54684;DHT22;40582;53.100;6.686;2023-09-18T02:28:54;16.00;99.90
54684;DHT22;40582;53.100;6.686;2023-09-18T02:31:21;15.90;99.90
54684;DHT22;40582;53.100;6.686;2023-09-18T02:33:47;16.00;99.90
54684;DHT22;40582;53.100;6.686;2023-09-18T02:36:13;16.00;99.90
54684;DHT22;40582;53.100;6.686;2023-09-18T02:38:39;16.00;99.90
54684;DHT22;40582;53.100;6.686;2023-09-18T02:41:05;16.00;99.90
54684;DHT22;40582;53.100;6.686;2023-09-18T02:43:30;16.10;99.90
54684;DHT22;40582;53.100;6.686;2023-09-18T02:45:56;16.10;99.90
54684;DHT22;40582;53.100;6.686;2023-09-18T02:48:22;16.10;99.90
54684;DHT22;40582;53.100;6.686;2023-09-18T02:50:48;16.10;99.90
54684;DHT22;40582;53.100;6.686;2023-09-18T02:53:20;16.10;99.90
54684;DHT22;40582;53.100;6.686;2023-09-18T02:55:54;16.10;99.90
54684;DHT22;40582;53.100;6.686;2023-09-18T02:58:20;16.00;99.90
54684;DHT22;40582;53.100;6.686;2023-09-18T03:00:47;16.00;99.90
54684;DHT22;40582;53.100;6.686;2023-09-18T03:03:14;16.10;99.90
54684;DHT22;40582;53.100;6.686;2023-09-18T03:05:41;16.10;99.90
54684;DHT22;40582;53.100;6.686;2023-09-18T03:08:07;16.10;99.90
54684;DHT22;40582;53.100;6.686;2023-09-18T03:10:38;16.10;99.90
54684;DHT22;40582;53.100;6.686;2023-09-18T03:13:09;16.10;99.90
54684;DHT22;40582;53.100;6.686;2023-09-18T03:15:35;16.10;99.90
54684;DHT22;40582;53.100;6.686;2023-09-18T03:18:03;16.10;99.90
54684;DHT22;40582;53.100;6.686;2023-09-18T03:20:30;16.10;99.90
54684;DHT22;40582;53.100;6.686;2023-09-18T03:23:00;16.10;99.90
54684;DHT22;40582;53.100;6.686;2023-09-18T03:25:27;16.10;99.90
54684;DHT22;40582;53.100;6.686;2023-09-18T03:27:54;16.10;99.90
54684;DHT22;40582;53.100;6.686;2023-09-18T03:30:21;16.10;99.90
54684;DHT22;40582;53.100;6.686;2023-09-18T03:32:49;16.10;99.90
54684;DHT22;40582;53.100;6.686;2023-09-18T03:35:15;16.10;99.90
54684;DHT22;40582;53.100;6.686;2023-09-18T03:37:53;16.10;99.90
54684;DHT22;40582;53.100;6.686;2023-09-18T03:40:20;16.10;99.90
54684;DHT22;40582;53.100;6.686;2023-09-18T03:42:46;16.10;99.90
54684;DHT22;40582;53.100;6.686;2023-09-18T03:45:13;16.10;99.90
54684;DHT22;40582;53.100;6.686;2023-09-18T03:47:40;16.10;99.90
54684;DHT22;40582;53.100;6.686;2023-09-18T03:50:10;16.00;99.90
54684;DHT22;40582;53.100;6.686;2023-09-18T03:52:36;16.00;99.90
54684;DHT22;40582;53.100;6.686;2023-09-18T03:55:02;16.00;99.90
54684;DHT22;40582;53.100;6.686;2023-09-18T03:57:28;16.00;99.90
54684;DHT22;40582;53.100;6.686;2023-09-18T03:59:53;16.00;99.90
54684;DHT22;40582;53.100;6.686;2023-09-18T04:02:21;16.00;99.90
54684;DHT22;40582;53.100;6.686;2023-09-18T04:04:47;16.00;99.90
54684;DHT22;40582;53.100;6.686;2023-09-18T04:07:13;16.00;99.90
54684;DHT22;40582;53.100;6.686;2023-09-18T04:09:42;16.10;99.90
54684;DHT22;40582;53.100;6.686;2023-09-18T04:12:07;16.10;99.90
54684;DHT22;40582;53.100;6.686;2023-09-18T04:14:33;16.10;99.90
54684;DHT22;40582;53.100;6.686;2023-09-18T04:16:59;16.10;99.90
54684;DHT22;40582;53.100;6.686;2023-09-18T04:19:28;16.10;99.90
54684;DHT22;40582;53.100;6.686;2023-09-18T04:21:55;16.10;99.90
54684;DHT22;40582;53.100;6.686;2023-09-18T04:24:21;16.10;99.90
54684;DHT22;40582;53.100;6.686;2023-09-18T04:26:48;16.10;99.90
54684;DHT22;40582;53.100;6.686;2023-09-18T04:29:16;16.20;99.90
54684;DHT22;40582;53.100;6.686;2023-09-18T04:31:42;16.20;99.90
54684;DHT22;40582;53.100;6.686;2023-09-18T04:34:07;16.20;99.90
54684;DHT22;40582;53.100;6.686;2023-09-18T04:36:33;16.20;99.90
54684;DHT22;40582;53.100;6.686;2023-09-18T04:38:59;16.20;99.90
54684;DHT22;40582;53.100;6.686;2023-09-18T04:41:25;16.20;99.90
54684;DHT22;40582;53.100;6.686;2023-09-18T04:43:51;16.20;99.90
54684;DHT22;40582;53.100;6.686;2023-09-18T04:46:16;16.20;99.90
54684;DHT22;40582;53.100;6.686;2023-09-18T04:48:42;16.30;99.90
54684;DHT22;40582;53.100;6.686;2023-09-18T04:51:08;16.30;99.90
54684;DHT22;40582;53.100;6.686;2023-09-18T04:53:33;16.40;99.90
54684;DHT22;40582;53.100;6.686;2023-09-18T04:55:59;16.40;99.90
54684;DHT22;40582;53.100;6.686;2023-09-18T04:58:26;16.50;99.90
54684;DHT22;40582;53.100;6.686;2023-09-18T05:00:56;16.50;99.90
54684;DHT22;40582;53.100;6.686;2023-09-18T05:03:22;16.50;99.90
54684;DHT22;40582;53.100;6.686;2023-09-18T05:05:48;16.50;99.90
54684;DHT22;40582;53.100;6.686;2023-09-18T05:08:14;16.50;99.90
54684;DHT22;40582;53.100;6.686;2023-09-18T05:10:40;16.60;99.90
54684;DHT22;40582;53.100;6.686;2023-09-18T05:13:06;16.60;99.90
54684;DHT22;40582;53.100;6.686;2023-09-18T05:15:32;16.60;99.90
54684;DHT22;40582;53.100;6.686;2023-09-18T05:17:59;16.60;99.90
54684;DHT22;40582;53.100;6.686;2023-09-18T05:20:27;16.60;99.90
54684;DHT22;40582;53.100;6.686;2023-09-18T05:22:54;16.60;99.90
54684;DHT22;40582;53.100;6.686;2023-09-18T05:25:21;16.60;99.90
54684;DHT22;40582;53.100;6.686;2023-09-18T05:27:51;16.70;99.90
54684;DHT22;40582;53.100;6.686;2023-09-18T05:30:28;16.70;99.90
54684;DHT22;40582;53.100;6.686;2023-09-18T05:32:55;16.70;99.90
54684;DHT22;40582;53.100;6.686;2023-09-18T05:35:21;16.80;99.90
54684;DHT22;40582;53.100;6.686;2023-09-18T05:37:48;16.80;99.90
54684;DHT22;40582;53.100;6.686;2023-09-18T05:40:14;16.80;99.90
54684;DHT22;40582;53.100;6.686;2023-09-18T05:42:43;16.80;99.90
54684;DHT22;40582;53.100;6.686;2023-09-18T05:45:10;16.90;99.90
54684;DHT22;40582;53.100;6.686;2023-09-18T05:47:36;16.90;99.90
54684;DHT22;40582;53.100;6.686;2023-09-18T05:50:05;17.00;99.90
54684;DHT22;40582;53.100;6.686;2023-09-18T05:52:32;16.90;99.90
54684;DHT22;40582;53.100;6.686;2023-09-18T05:54:59;17.00;99.90
54684;DHT22;40582;53.100;6.686;2023-09-18T05:57:25;17.00;99.90
54684;DHT22;40582;53.100;6.686;2023-09-18T05:59:56;17.00;99.90
54684;DHT22;40582;53.100;6.686;2023-09-18T06:02:22;17.10;99.90
54684;DHT22;40582;53.100;6.686;2023-09-18T06:04:48;17.10;99.90
54684;DHT22;40582;53.100;6.686;2023-09-18T06:07:14;17.10;99.90
54684;DHT22;40582;53.100;6.686;2023-09-18T06:09:40;17.20;99.90
54684;DHT22;40582;53.100;6.686;2023-09-18T06:12:07;17.20;99.90
54684;DHT22;40582;53.100;6.686;2023-09-18T06:14:32;17.20;99.90
54684;DHT22;40582;53.100;6.686;2023-09-18T06:17:04;17.30;99.90
54684;DHT22;40582;53.100;6.686;2023-09-18T06:19:29;17.30;99.90
54684;DHT22;40582;53.100;6.686;2023-09-18T06:21:56;17.30;99.90
54684;DHT22;40582;53.100;6.686;2023-09-18T06:24:21;17.30;99.90
54684;DHT22;40582;53.100;6.686;2023-09-18T06:26:47;17.40;99.90
54684;DHT22;40582;53.100;6.686;2023-09-18T06:29:13;17.50;99.90
54684;DHT22;40582;53.100;6.686;2023-09-18T06:31:39;17.50;99.90
54684;DHT22;40582;53.100;6.686;2023-09-18T06:34:04;17.50;99.90
54684;DHT22;40582;53.100;6.686;2023-09-18T06:36:30;17.50;99.90
54684;DHT22;40582;53.100;6.686;2023-09-18T06:38:56;17.60;99.90
54684;DHT22;40582;53.100;6.686;2023-09-18T06:41:22;17.60;99.90
54684;DHT22;40582;53.100;6.686;2023-09-18T06:43:47;17.60;99.90
54684;DHT22;40582;53.100;6.686;2023-09-18T06:46:13;17.60;99.90
54684;DHT22;40582;53.100;6.686;2023-09-18T06:48:39;17.60;99.90
54684;DHT22;40582;53.100;6.686;2023-09-18T06:51:04;17.70;99.90
54684;DHT22;40582;53.100;6.686;2023-09-18T06:53:31;17.70;99.90
54684;DHT22;40582;53.100;6.686;2023-09-18T06:55:57;17.70;99.90
54684;DHT22;40582;53.100;6.686;2023-09-18T06:58:23;17.70;99.90
54684;DHT22;40582;53.100;6.686;2023-09-18T07:00:48;17.80;99.90
54684;DHT22;40582;53.100;6.686;2023-09-18T07:03:16;17.80;99.90
54684;DHT22;40582;53.100;6.686;2023-09-18T07:05:43;17.80;99.90
54684;DHT22;40582;53.100;6.686;2023-09-18T07:08:09;17.80;99.90
54684;DHT22;40582;53.100;6.686;2023-09-18T07:10:38;17.80;99.90
54684;DHT22;40582;53.100;6.686;2023-09-18T07:13:04;17.60;99.90
54684;DHT22;40582;53.100;6.686;2023-09-18T07:15:30;17.80;99.90
54684;DHT22;40582;53.100;6.686;2023-09-18T07:17:55;17.80;99.90
54684;DHT22;40582;53.100;6.686;2023-09-18T07:20:21;17.80;99.90
54684;DHT22;40582;53.100;6.686;2023-09-18T07:22:48;17.70;99.90
54684;DHT22;40582;53.100;6.686;2023-09-18T07:25:14;17.70;99.90
54684;DHT22;40582;53.100;6.686;2023-09-18T07:27:40;17.70;99.90
54684;DHT22;40582;53.100;6.686;2023-09-18T07:30:13;17.70;99.90
54684;DHT22;40582;53.100;6.686;2023-09-18T07:32:43;17.70;99.90
54684;DHT22;40582;53.100;6.686;2023-09-18T07:35:09;17.70;99.90
54684;DHT22;40582;53.100;6.686;2023-09-18T07:37:36;17.70;99.90
54684;DHT22;40582;53.100;6.686;2023-09-18T07:40:06;17.70;99.90
54684;DHT22;40582;53.100;6.686;2023-09-18T07:42:32;17.70;99.90
54684;DHT22;40582;53.100;6.686;2023-09-18T07:44:59;17.70;99.90
54684;DHT22;40582;53.100;6.686;2023-09-18T07:47:25;17.70;99.90
54684;DHT22;40582;53.100;6.686;2023-09-18T07:49:51;17.70;99.90
54684;DHT22;40582;53.100;6.686;2023-09-18T07:52:19;17.70;99.90
54684;DHT22;40582;53.100;6.686;2023-09-18T07:54:45;17.70;99.90
54684;DHT22;40582;53.100;6.686;2023-09-18T07:57:11;17.70;99.90
54684;DHT22;40582;53.100;6.686;2023-09-18T07:59:37;17.80;99.90
54684;DHT22;40582;53.100;6.686;2023-09-18T08:02:02;17.70;99.90
54684;DHT22;40582;53.100;6.686;2023-09-18T08:04:31;17.80;99.90
54684;DHT22;40582;53.100;6.686;2023-09-18T08:06:57;17.80;99.90
54684;DHT22;40582;53.100;6.686;2023-09-18T08:09:23;17.80;99.90
54684;DHT22;40582;53.100;6.686;2023-09-18T08:11:49;17.90;99.90
54684;DHT22;40582;53.100;6.686;2023-09-18T08:14:15;17.90;99.90
54684;DHT22;40582;53.100;6.686;2023-09-18T08:16:42;17.90;99.90
54684;DHT22;40582;53.100;6.686;2023-09-18T08:19:08;18.00;99.90
54684;DHT22;40582;53.100;6.686;2023-09-18T08:21:35;18.00;99.90
54684;DHT22;40582;53.100;6.686;2023-09-18T08:24:00;18.00;99.90
54684;DHT22;40582;53.100;6.686;2023-09-18T08:26:26;18.00;99.90
54684;DHT22;40582;53.100;6.686;2023-09-18T08:28:54;18.10;99.90
54684;DHT22;40582;53.100;6.686;2023-09-18T08:31:19;18.10;99.90
54684;DHT22;40582;53.100;6.686;2023-09-18T08:33:45;18.10;99.90
54684;DHT22;40582;53.100;6.686;2023-09-18T08:36:11;18.10;99.90
54684;DHT22;40582;53.100;6.686;2023-09-18T08:38:37;18.10;99.90
54684;DHT22;40582;53.100;6.686;2023-09-18T08:41:02;18.10;99.90
54684;DHT22;40582;53.100;6.686;2023-09-18T08:43:29;18.10;99.90
54684;DHT22;40582;53.100;6.686;2023-09-18T08:45:56;18.10;99.90
54684;DHT22;40582;53.100;6.686;2023-09-18T08:48:28;18.10;99.90
54684;DHT22;40582;53.100;6.686;2023-09-18T08:51:05;18.20;99.90
54684;DHT22;40582;53.100;6.686;2023-09-18T08:53:32;18.30;99.90
54684;DHT22;40582;53.100;6.686;2023-09-18T08:55:59;18.40;99.90
54684;DHT22;40582;53.100;6.686;2023-09-18T08:58:29;18.50;99.90
54684;DHT22;40582;53.100;6.686;2023-09-18T09:00:57;18.70;99.90
54684;DHT22;40582;53.100;6.686;2023-09-18T09:03:23;18.80;99.90
54684;DHT22;40582;53.100;6.686;2023-09-18T09:05:49;18.90;99.90
54684;DHT22;40582;53.100;6.686;2023-09-18T09:08:15;19.00;99.90
54684;DHT22;40582;53.100;6.686;2023-09-18T09:10:41;18.90;99.90
54684;DHT22;40582;53.100;6.686;2023-09-18T09:13:07;18.90;99.90
54684;DHT22;40582;53.100;6.686;2023-09-18T09:15:44;18.90;99.90
54684;DHT22;40582;53.100;6.686;2023-09-18T09:18:14;18.80;99.90
54684;DHT22;40582;53.100;6.686;2023-09-18T09:20:59;18.80;99.90
54684;DHT22;40582;53.100;6.686;2023-09-18T09:23:30;18.70;99.90
54684;DHT22;40582;53.100;6.686;2023-09-18T09:26:15;18.70;99.90
54684;DHT22;40582;53.100;6.686;2023-09-18T09:28:42;18.70;99.90
54684;DHT22;40582;53.100;6.686;2023-09-18T09:31:09;18.70;99.90
54684;DHT22;40582;53.100;6.686;2023-09-18T09:33:37;18.70;99.90
54684;DHT22;40582;53.100;6.686;2023-09-18T09:36:06;18.70;99.90
54684;DHT22;40582;53.100;6.686;2023-09-18T09:38:34;18.90;99.90
54684;DHT22;40582;53.100;6.686;2023-09-18T09:41:00;19.00;99.90
54684;DHT22;40582;53.100;6.686;2023-09-18T09:43:27;19.10;99.90
54684;DHT22;40582;53.100;6.686;2023-09-18T09:45:57;19.20;99.90
54684;DHT22;40582;53.100;6.686;2023-09-18T09:48:24;19.30;99.90
54684;DHT22;40582;53.100;6.686;2023-09-18T09:50:51;19.40;99.90
54684;DHT22;40582;53.100;6.686;2023-09-18T09:53:17;19.40;99.90
54684;DHT22;40582;53.100;6.686;2023-09-18T09:55:44;19.50;99.90
54684;DHT22;40582;53.100;6.686;2023-09-18T09:58:10;19.60;99.90
54684;DHT22;40582;53.100;6.686;2023-09-18T10:00:46;19.70;99.90
54684;DHT22;40582;53.100;6.686;2023-09-18T10:03:19;19.80;99.90
54684;DHT22;40582;53.100;6.686;2023-09-18T10:05:47;19.90;99.90
54684;DHT22;40582;53.100;6.686;2023-09-18T10:08:21;20.00;99.90
54684;DHT22;40582;53.100;6.686;2023-09-18T10:10:49;20.20;99.90
54684;DHT22;40582;53.100;6.686;2023-09-18T10:15:44;20.80;99.90
54684;DHT22;40582;53.100;6.686;2023-09-18T10:18:35;20.90;99.90
54684;DHT22;40582;53.100;6.686;2023-09-18T10:21:41;20.90;99.90
54684;DHT22;40582;53.100;6.686;2023-09-18T10:24:23;20.80;99.90
54684;DHT22;40582;53.100;6.686;2023-09-18T10:29:23;21.10;99.90
54684;DHT22;40582;53.100;6.686;2023-09-18T10:31:51;21.30;99.90
54684;DHT22;40582;53.100;6.686;2023-09-18T10:34:18;21.50;99.90
54684;DHT22;40582;53.100;6.686;2023-09-18T10:36:46;21.70;99.90
54684;DHT22;40582;53.100;6.686;2023-09-18T10:39:13;21.80;99.90
54684;DHT22;40582;53.100;6.686;2023-09-18T10:41:39;21.70;99.90
54684;DHT22;40582;53.100;6.686;2023-09-18T10:44:07;21.90;99.90
54684;DHT22;40582;53.100;6.686;2023-09-18T10:46:35;22.00;99.90
54684;DHT22;40582;53.100;6.686;2023-09-18T10:49:01;21.90;99.90
54684;DHT22;40582;53.100;6.686;2023-09-18T10:51:29;22.10;99.90
54684;DHT22;40582;53.100;6.686;2023-09-18T10:53:57;22.50;99.90
54684;DHT22;40582;53.100;6.686;2023-09-18T10:56:23;22.60;99.90
54684;DHT22;40582;53.100;6.686;2023-09-18T10:58:57;22.70;99.90
54684;DHT22;40582;53.100;6.686;2023-09-18T11:01:24;22.80;99.90
54684;DHT22;40582;53.100;6.686;2023-09-18T11:03:52;22.90;99.90
54684;DHT22;40582;53.100;6.686;2023-09-18T11:06:18;23.10;99.90
54684;DHT22;40582;53.100;6.686;2023-09-18T11:08:48;23.10;99.90
54684;DHT22;40582;53.100;6.686;2023-09-18T11:11:18;23.00;99.90
54684;DHT22;40582;53.100;6.686;2023-09-18T11:13:51;23.10;99.90
54684;DHT22;40582;53.100;6.686;2023-09-18T11:21:26;22.70;99.90
54684;DHT22;40582;53.100;6.686;2023-09-18T11:24:20;22.50;99.90
54684;DHT22;40582;53.100;6.686;2023-09-18T11:26:48;22.30;99.90
54684;DHT22;40582;53.100;6.686;2023-09-18T11:29:16;22.20;99.90
54684;DHT22;40582;53.100;6.686;2023-09-18T11:31:52;22.10;99.90
54684;DHT22;40582;53.100;6.686;2023-09-18T11:34:26;21.90;99.90
54684;DHT22;40582;53.100;6.686;2023-09-18T11:36:52;21.70;99.90
54684;DHT22;40582;53.100;6.686;2023-09-18T11:39:41;21.50;99.90
54684;DHT22;40582;53.100;6.686;2023-09-18T11:42:15;21.80;99.90
54684;DHT22;40582;53.100;6.686;2023-09-18T11:44:42;22.10;99.90
54684;DHT22;40582;53.100;6.686;2023-09-18T11:47:16;22.30;99.90
54684;DHT22;40582;53.100;6.686;2023-09-18T11:49:48;22.30;99.90
54684;DHT22;40582;53.100;6.686;2023-09-18T11:52:18;22.10;99.90
54684;DHT22;40582;53.100;6.686;2023-09-18T11:54:45;21.90;99.90
54684;DHT22;40582;53.100;6.686;2023-09-18T11:57:13;21.80;99.90
54684;DHT22;40582;53.100;6.686;2023-09-18T11:59:40;21.80;99.90
54684;DHT22;40582;53.100;6.686;2023-09-18T12:02:10;21.80;99.90
54684;DHT22;40582;53.100;6.686;2023-09-18T12:04:37;21.70;99.90
54684;DHT22;40582;53.100;6.686;2023-09-18T12:07:06;21.70;99.90
54684;DHT22;40582;53.100;6.686;2023-09-18T12:09:33;21.80;99.90
54684;DHT22;40582;53.100;6.686;2023-09-18T12:11:59;21.90;99.90
54684;DHT22;40582;53.100;6.686;2023-09-18T12:14:32;22.00;99.90
54684;DHT22;40582;53.100;6.686;2023-09-18T12:17:02;22.40;99.90
54684;DHT22;40582;53.100;6.686;2023-09-18T12:19:33;22.70;99.90
54684;DHT22;40582;53.100;6.686;2023-09-18T12:22:01;22.70;99.90
54684;DHT22;40582;53.100;6.686;2023-09-18T12:24:27;22.70;99.90
54684;DHT22;40582;53.100;6.686;2023-09-18T12:26:54;22.60;99.90
54684;DHT22;40582;53.100;6.686;2023-09-18T12:29:20;22.80;99.90
54684;DHT22;40582;53.100;6.686;2023-09-18T12:31:46;23.10;99.90
54684;DHT22;40582;53.100;6.686;2023-09-18T12:34:17;23.10;99.90
54684;DHT22;40582;53.100;6.686;2023-09-18T12:36:44;23.10;99.90
54684;DHT22;40582;53.100;6.686;2023-09-18T12:39:13;22.90;99.90
54684;DHT22;40582;53.100;6.686;2023-09-18T12:41:45;22.70;99.90
54684;DHT22;40582;53.100;6.686;2023-09-18T12:44:11;22.90;99.90
54684;DHT22;40582;53.100;6.686;2023-09-18T12:46:38;22.90;99.90
54684;DHT22;40582;53.100;6.686;2023-09-18T12:49:22;22.80;99.90
54684;DHT22;40582;53.100;6.686;2023-09-18T12:52:01;22.70;99.90
54684;DHT22;40582;53.100;6.686;2023-09-18T12:54:44;22.60;99.90
54684;DHT22;40582;53.100;6.686;2023-09-18T12:57:15;22.70;99.90
54684;DHT22;40582;53.100;6.686;2023-09-18T12:59:41;22.80;99.90
54684;DHT22;40582;53.100;6.686;2023-09-18T13:02:07;22.90;99.90
54684;DHT22;40582;53.100;6.686;2023-09-18T13:04:35;22.90;99.90
54684;DHT22;40582;53.100;6.686;2023-09-18T13:07:28;22.90;99.90
54684;DHT22;40582;53.100;6.686;2023-09-18T13:10:05;22.90;99.90
54684;DHT22;40582;53.100;6.686;2023-09-18T13:12:51;23.00;99.90
54684;DHT22;40582;53.100;6.686;2023-09-18T13:15:30;22.90;99.90
54684;DHT22;40582;53.100;6.686;2023-09-18T13:17:58;23.10;99.90
54684;DHT22;40582;53.100;6.686;2023-09-18T13:20:27;22.90;99.90
54684;DHT22;40582;53.100;6.686;2023-09-18T13:22:56;22.50;99.90
54684;DHT22;40582;53.100;6.686;2023-09-18T13:25:30;22.30;99.90
54684;DHT22;40582;53.100;6.686;2023-09-18T13:27:57;22.10;99.90
54684;DHT22;40582;53.100;6.686;2023-09-18T13:30:23;22.10;99.90
54684;DHT22;40582;53.100;6.686;2023-09-18T13:32:50;22.00;99.90
54684;DHT22;40582;53.100;6.686;2023-09-18T13:35:16;21.90;99.90
54684;DHT22;40582;53.100;6.686;2023-09-18T13:37:43;22.10;99.90
54684;DHT22;40582;53.100;6.686;2023-09-18T13:40:10;22.50;99.90
54684;DHT22;40582;53.100;6.686;2023-09-18T13:42:37;22.90;99.90
54684;DHT22;40582;53.100;6.686;2023-09-18T13:45:04;23.10;99.90
54684;DHT22;40582;53.100;6.686;2023-09-18T13:47:32;23.20;99.90
54684;DHT22;40582;53.100;6.686;2023-09-18T13:49:59;23.20;99.90
54684;DHT22;40582;53.100;6.686;2023-09-18T13:52:29;23.10;99.90
54684;DHT22;40582;53.100;6.686;2023-09-18T13:54:55;23.10;99.90
54684;DHT22;40582;53.100;6.686;2023-09-18T13:57:21;23.00;99.90
54684;DHT22;40582;53.100;6.686;2023-09-18T13:59:48;22.80;99.90
54684;DHT22;40582;53.100;6.686;2023-09-18T14:02:15;22.70;99.90
54684;DHT22;40582;53.100;6.686;2023-09-18T14:04:41;22.80;99.90
54684;DHT22;40582;53.100;6.686;2023-09-18T14:07:07;22.90;99.90
54684;DHT22;40582;53.100;6.686;2023-09-18T14:09:34;23.10;99.90
54684;DHT22;40582;53.100;6.686;2023-09-18T14:12:00;23.00;99.90
54684;DHT22;40582;53.100;6.686;2023-09-18T14:14:26;22.90;99.90
54684;DHT22;40582;53.100;6.686;2023-09-18T14:16:52;22.70;99.90
54684;DHT22;40582;53.100;6.686;2023-09-18T14:19:19;22.70;99.90
54684;DHT22;40582;53.100;6.686;2023-09-18T14:21:45;22.60;99.90
54684;DHT22;40582;53.100;6.686;2023-09-18T14:24:11;22.50;99.90
54684;DHT22;40582;53.100;6.686;2023-09-18T14:26:36;22.40;99.90
54684;DHT22;40582;53.100;6.686;2023-09-18T14:29:09;22.20;99.90
54684;DHT22;40582;53.100;6.686;2023-09-18T14:31:39;22.20;99.90
54684;DHT22;40582;53.100;6.686;2023-09-18T14:34:05;22.20;99.90
54684;DHT22;40582;53.100;6.686;2023-09-18T14:36:34;22.20;99.90
54684;DHT22;40582;53.100;6.686;2023-09-18T14:39:04;22.20;99.90
54684;DHT22;40582;53.100;6.686;2023-09-18T14:41:30;22.30;99.90
54684;DHT22;40582;53.100;6.686;2023-09-18T14:43:57;22.40;99.90
54684;DHT22;40582;53.100;6.686;2023-09-18T14:46:24;22.60;99.90
54684;DHT22;40582;53.100;6.686;2023-09-18T14:48:50;22.50;99.90
54684;DHT22;40582;53.100;6.686;2023-09-18T14:51:16;22.50;99.90
54684;DHT22;40582;53.100;6.686;2023-09-18T14:53:43;22.40;99.90
54684;DHT22;40582;53.100;6.686;2023-09-18T14:56:09;22.30;99.90
54684;DHT22;40582;53.100;6.686;2023-09-18T14:58:34;22.20;99.90
54684;DHT22;40582;53.100;6.686;2023-09-18T15:01:00;22.30;99.90
54684;DHT22;40582;53.100;6.686;2023-09-18T15:03:26;22.50;99.90
54684;DHT22;40582;53.100;6.686;2023-09-18T15:05:54;22.70;99.90
54684;DHT22;40582;53.100;6.686;2023-09-18T15:08:21;22.70;99.90
54684;DHT22;40582;53.100;6.686;2023-09-18T15:10:46;22.70;99.90
54684;DHT22;40582;53.100;6.686;2023-09-18T15:13:12;22.40;99.90
54684;DHT22;40582;53.100;6.686;2023-09-18T15:15:40;22.20;99.90
54684;DHT22;40582;53.100;6.686;2023-09-18T15:18:06;22.10;99.90
54684;DHT22;40582;53.100;6.686;2023-09-18T15:20:32;22.00;99.90
54684;DHT22;40582;53.100;6.686;2023-09-18T15:22:58;21.80;99.90
54684;DHT22;40582;53.100;6.686;2023-09-18T15:25:23;21.70;99.90
54684;DHT22;40582;53.100;6.686;2023-09-18T15:27:49;21.60;99.90
54684;DHT22;40582;53.100;6.686;2023-09-18T15:30:15;21.60;99.90
54684;DHT22;40582;53.100;6.686;2023-09-18T15:32:52;21.50;99.90
54684;DHT22;40582;53.100;6.686;2023-09-18T15:35:25;21.50;99.90
54684;DHT22;40582;53.100;6.686;2023-09-18T15:37:52;21.50;99.90
54684;DHT22;40582;53.100;6.686;2023-09-18T15:40:19;21.40;99.90
54684;DHT22;40582;53.100;6.686;2023-09-18T15:42:46;21.40;99.90
54684;DHT22;40582;53.100;6.686;2023-09-18T15:45:13;21.40;99.90
54684;DHT22;40582;53.100;6.686;2023-09-18T15:47:42;21.30;99.90